TimePDT,TemperatureF,Dew PointF,Humidity,Sea Level PressureIn,VisibilityMPH,Wind Direction,Wind SpeedMPH,Gust SpeedMPH,PrecipitationIn,Events,Conditions,WindDirDegrees,DateUTC
12:53 AM,54.0,51.1,90,30.04,10.0,Calm,Calm,-,N/A,,Mostly Cloudy,0,2012-11-02 07:53:00
1:53 AM,54.0,51.1,90,30.04,10.0,SSE,4.6,-,N/A,,Overcast,150,2012-11-02 08:53:00
2:53 AM,54.0,51.1,90,30.05,10.0,Calm,Calm,-,N/A,,Overcast,0,2012-11-02 09:53:00
3:53 AM,53.1,51.1,93,30.05,10.0,Calm,Calm,-,N/A,,Overcast,0,2012-11-02 10:53:00
4:53 AM,53.1,51.1,93,30.05,10.0,SE,3.5,-,N/A,,Overcast,140,2012-11-02 11:53:00
5:53 AM,53.1,51.1,93,30.05,10.0,Calm,Calm,-,N/A,,Overcast,0,2012-11-02 12:53:00
6:53 AM,52.0,50.0,93,30.03,10.0,Calm,Calm,-,N/A,,Clear,0,2012-11-02 13:53:00
7:53 AM,50.0,48.9,96,30.02,10.0,Calm,Calm,-,N/A,,Clear,0,2012-11-02 14:53:00
8:53 AM,50.0,50.0,100,30.04,10.0,Calm,Calm,-,N/A,,Clear,0,2012-11-02 15:53:00
9:53 AM,51.1,51.1,100,30.04,10.0,Calm,Calm,-,N/A,,Clear,0,2012-11-02 16:53:00
10:53 AM,53.1,51.1,93,30.04,10.0,Calm,Calm,-,N/A,,Clear,0,2012-11-02 17:53:00
11:53 AM,55.9,50.0,80,30.04,10.0,Calm,Calm,-,N/A,,Clear,0,2012-11-02 18:53:00
12:53 PM,57.9,50.0,75,30.02,10.0,Calm,Calm,-,N/A,,Scattered Clouds,0,2012-11-02 19:53:00
1:53 PM,57.9,51.1,78,30.00,10.0,North,3.5,-,N/A,,Clear,350,2012-11-02 20:53:00
2:53 PM,59.0,51.1,75,29.99,10.0,NNW,3.5,-,N/A,,Overcast,340,2012-11-02 21:53:00
3:53 PM,57.9,50.0,75,29.99,10.0,Calm,Calm,-,N/A,,Mostly Cloudy,0,2012-11-02 22:53:00
4:53 PM,57.9,52.0,81,30.00,6.0,South,3.5,-,0.01,Rain,Light Rain,190,2012-11-02 23:53:00
5:53 PM,55.9,53.1,90,30.00,5.0,Calm,Calm,-,0.09,Rain,Light Rain,0,2012-11-03 00:53:00
6:53 PM,55.0,53.1,93,30.00,10.0,Calm,Calm,-,0.03,,Mostly Cloudy,0,2012-11-03 01:53:00
7:53 PM,54.0,53.1,97,29.99,8.0,Calm,Calm,-,N/A,,Overcast,0,2012-11-03 02:53:00
8:02 PM,53.6,53.6,100,29.98,10.0,Calm,Calm,-,N/A,,Overcast,0,2012-11-03 03:02:00
8:53 PM,54.0,53.1,97,29.99,9.0,Calm,Calm,-,0.00,,Overcast,0,2012-11-03 03:53:00
9:53 PM,53.1,53.1,100,29.99,8.0,Calm,Calm,-,0.01,Rain,Light Rain,0,2012-11-03 04:53:00
10:53 PM,52.0,52.0,100,29.98,10.0,Calm,Calm,-,0.06,Rain,Light Rain,0,2012-11-03 05:53:00
11:53 PM,51.1,51.1,100,29.98,10.0,Calm,Calm,-,0.00,,Overcast,0,2012-11-03 06:53:00